Time;durP1;ratioP1;P1;durP2;ratioP2;P2;SDS_P1;SDS_P2;PMS_P1;PMS_P2;Temp;Humidity;BMP_temperature;BMP_pressure;BME280_temperature;BME280_humidity;BME280_pressure;Samples;Min_cycle;Max_cycle;Signal;HPM_P1;HPM_P2
2021/07/10 00:01:10;;;;;;;1.38;0.60;;;;;;;19.32;59.69;100355.47;4897746;28;100816;-78
2021/07/10 00:03:35;;;;;;;3.03;0.40;;;;;;;19.48;59.34;100373.00;4897630;28;97559;-78
2021/07/10 00:06:01;;;;;;;0.57;0.47;;;;;;;19.49;59.55;100372.91;4897331;28;96798;-78
2021/07/10 00:08:27;;;;;;;3.22;0.60;;;;;;;19.45;59.72;100366.94;4913101;28;100208;-79
2021/07/10 00:10:52;;;;;;;2.83;0.38;;;;;;;19.41;59.80;100346.00;4912727;28;98363;-79
2021/07/10 00:13:18;;;;;;;0.40;0.40;;;;;;;19.36;59.67;100329.47;4913466;28;96644;-80
2021/07/10 00:15:43;;;;;;;0.85;0.63;;;;;;;19.10;60.34;100310.03;4930395;28;97312;-79
2021/07/10 00:18:09;;;;;;;0.40;0.40;;;;;;;19.29;60.20;100347.69;4921886;28;100185;-79
2021/07/10 00:20:34;;;;;;;0.52;0.43;;;;;;;19.18;60.40;100335.13;4912518;28;101095;-79
2021/07/10 00:23:01;;;;;;;0.50;0.40;;;;;;;19.25;60.73;100363.97;4924443;28;97367;-79
2021/07/10 00:25:27;;;;;;;0.80;0.50;;;;;;;19.27;60.41;100370.91;4898886;28;97342;-79
2021/07/10 00:27:53;;;;;;;0.65;0.47;;;;;;;19.38;60.42;100376.31;4889407;28;100899;-79
2021/07/10 00:30:20;;;;;;;0.73;0.60;;;;;;;19.32;60.88;100366.13;4931364;28;100891;-79
2021/07/10 00:32:47;;;;;;;1.27;0.70;;;;;;;19.37;60.36;100379.09;4903685;28;97256;-79
2021/07/10 00:35:13;;;;;;;2.75;0.50;;;;;;;19.37;60.39;100368.44;4881463;28;96938;-78
2021/07/10 00:37:40;;;;;;;4.65;0.80;;;;;;;19.32;60.72;100365.25;4897390;28;101501;-79
2021/07/10 00:40:07;;;;;;;1.85;0.63;;;;;;;19.24;60.71;100347.16;4912665;28;101659;-78
2021/07/10 00:42:36;;;;;;;3.17;0.70;;;;;;;19.39;60.61;100350.56;4906799;28;96725;-79
2021/07/10 00:45:04;;;;;;;0.60;0.60;;;;;;;19.20;60.81;100333.22;4896959;28;97206;-79
2021/07/10 00:47:29;;;;;;;1.88;0.77;;;;;;;19.37;60.60;100356.00;4894135;28;101501;-78
2021/07/10 00:49:55;;;;;;;0.60;0.60;;;;;;;19.41;60.39;100351.31;4913223;28;98148;-79
2021/07/10 00:52:21;;;;;;;1.67;0.50;;;;;;;19.42;60.51;100359.16;4910183;28;97128;-79
2021/07/10 00:54:46;;;;;;;0.60;0.60;;;;;;;19.42;60.41;100364.50;4904383;28;98236;-81
2021/07/10 00:57:12;;;;;;;0.68;0.68;;;;;;;19.39;60.72;100361.19;4948004;28;98994;-79
2021/07/10 00:59:39;;;;;;;1.00;0.60;;;;;;;19.37;60.85;100361.31;4903863;28;101143;-79
2021/07/10 01:02:05;;;;;;;0.57;0.40;;;;;;;19.40;60.75;100363.78;4901829;28;97353;-79
2021/07/10 01:04:30;;;;;;;0.85;0.60;;;;;;;19.35;60.78;100360.56;4913667;28;96739;-78
2021/07/10 01:06:56;;;;;;;1.10;0.60;;;;;;;19.34;60.82;100364.16;4893284;28;101306;-79
2021/07/10 01:09:21;;;;;;;2.38;0.60;;;;;;;19.38;61.09;100370.16;4932649;28;98321;-79
2021/07/10 01:11:47;;;;;;;2.08;0.80;;;;;;;19.40;60.77;100368.22;4912208;28;97250;-82
2021/07/10 01:14:13;;;;;;;1.48;0.70;;;;;;;19.35;60.80;100349.94;4900973;28;96648;-78
2021/07/10 01:16:38;;;;;;;2.47;0.70;;;;;;;19.30;60.68;100346.72;4890301;28;101518;-79
2021/07/10 01:19:04;;;;;;;0.95;0.60;;;;;;;19.38;61.02;100357.69;4899486;28;101468;-79
2021/07/10 01:21:30;;;;;;;2.30;0.60;;;;;;;19.40;61.12;100358.44;4902770;28;98064;-79
2021/07/10 01:23:55;;;;;;;3.15;0.70;;;;;;;19.41;60.99;100354.81;4915769;28;96871;-78
2021/07/10 01:26:21;;;;;;;0.80;0.80;;;;;;;19.32;61.22;100362.59;4899894;28;101606;-79
2021/07/10 01:28:47;;;;;;;2.05;1.50;;;;;;;19.24;60.70;100336.53;4893751;28;101459;-80
2021/07/10 01:31:13;;;;;;;2.05;0.80;;;;;;;19.20;61.08;100337.69;4900250;28;96813;-79
2021/07/10 01:33:38;;;;;;;1.20;0.60;;;;;;;19.34;61.23;100350.03;4899902;28;97678;-79
2021/07/10 01:36:04;;;;;;;3.20;0.70;;;;;;;19.22;61.00;100347.25;4933017;28;98032;-78
2021/07/10 01:38:30;;;;;;;2.55;0.60;;;;;;;19.35;61.10;100354.41;4919373;28;101460;-79
2021/07/10 01:40:56;;;;;;;0.75;0.70;;;;;;;19.42;60.91;100364.50;4902783;28;96729;-79
2021/07/10 01:43:22;;;;;;;1.95;0.60;;;;;;;19.33;60.72;100364.28;4912574;28;96876;-79
2021/07/10 01:45:48;;;;;;;1.55;0.90;;;;;;;19.33;61.05;100370.47;4899978;28;98527;-81
2021/07/10 01:48:13;;;;;;;1.48;0.50;;;;;;;19.37;60.68;100379.09;4915554;28;101852;-78
2021/07/10 01:50:44;;;;;;;1.02;0.73;;;;;;;19.38;60.64;100375.47;4908988;28;96926;-79
2021/07/10 01:53:14;;;;;;;5.30;0.70;;;;;;;19.34;60.74;100372.16;4899254;28;96876;-78
2021/07/10 01:55:39;;;;;;;2.05;0.60;;;;;;;19.37;60.57;100376.41;4894752;28;101329;-78
2021/07/10 01:58:05;;;;;;;2.15;0.50;;;;;;;19.32;60.65;100371.44;4922951;28;98393;-78
2021/07/10 02:00:34;;;;;;;4.03;0.63;;;;;;;19.32;60.39;100370.59;4906587;28;97182;-78
2021/07/10 02:03:01;;;;;;;1.85;0.70;;;;;;;19.29;60.86;100386.78;4915219;28;96931;-78
2021/07/10 02:05:28;;;;;;;3.65;0.70;;;;;;;19.22;60.68;100373.03;4894954;28;101302;-78
2021/07/10 02:07:54;;;;;;;0.82;0.68;;;;;;;19.25;60.82;100382.59;4907069;28;101699;-78
2021/07/10 02:10:21;;;;;;;3.72;1.00;;;;;;;19.22;61.43;100381.84;4916667;28;96793;-78
2021/07/10 02:12:47;;;;;;;0.45;0.45;;;;;;;19.29;61.36;100394.75;4891774;28;96847;-78
2021/07/10 02:15:13;;;;;;;2.30;0.60;;;;;;;19.27;61.18;100399.31;4899997;28;101259;-78
2021/07/10 02:17:42;;;;;;;0.40;0.40;;;;;;;19.28;61.05;100385.03;4905068;28;98417;-78
2021/07/10 02:20:09;;;;;;;0.77;0.75;;;;;;;19.20;61.22;100396.25;4911402;28;96777;-78
2021/07/10 02:22:34;;;;;;;2.03;0.70;;;;;;;19.17;61.11;100393.78;4904945;28;96839;-78
2021/07/10 02:25:00;;;;;;;1.02;0.60;;;;;;;19.21;61.34;100412.09;4906633;28;101551;-78
2021/07/10 02:27:27;;;;;;;1.58;0.63;;;;;;;19.33;60.87;100415.72;4915820;28;98058;-78
2021/07/10 02:29:53;;;;;;;1.58;0.50;;;;;;;19.23;61.32;100426.16;4911661;28;97124;-78
2021/07/10 02:32:19;;;;;;;2.50;0.50;;;;;;;19.13;61.46;100405.59;4916542;28;96766;-78
2021/07/10 02:34:44;;;;;;;1.92;0.50;;;;;;;19.23;61.65;100427.97;4882887;28;101407;-78
2021/07/10 02:37:10;;;;;;;1.38;0.60;;;;;;;19.23;61.26;100417.31;4903515;28;101687;-78
2021/07/10 02:39:35;;;;;;;0.95;0.60;;;;;;;19.32;60.70;100431.81;4915269;28;96731;-78
2021/07/10 02:42:01;;;;;;;2.40;0.60;;;;;;;19.11;61.18;100415.47;4903270;28;96907;-77
2021/07/10 02:44:26;;;;;;;2.33;0.70;;;;;;;19.32;60.83;100437.97;4926731;28;101566;-79
2021/07/10 02:46:55;;;;;;;0.40;0.40;;;;;;;19.22;61.13;100440.38;4886710;28;101525;-79
2021/07/10 02:49:21;;;;;;;1.13;1.02;;;;;;;19.22;60.90;100429.75;4929224;28;96800;-79
2021/07/10 02:51:47;;;;;;;1.10;0.63;;;;;;;19.16;61.23;100424.00;4915124;28;96935;-80
2021/07/10 02:54:12;;;;;;;0.90;0.73;;;;;;;19.14;61.59;100441.88;4897332;28;101835;-79
2021/07/10 02:56:38;;;;;;;2.05;0.60;;;;;;;19.09;61.76;100418.25;4925662;28;97307;-79
2021/07/10 02:59:03;;;;;;;2.05;0.77;;;;;;;19.11;61.43;100436.75;4894920;28;96713;-79
2021/07/10 03:01:29;;;;;;;0.73;0.60;;;;;;;19.10;61.61;100437.72;4914871;28;97157;-79
2021/07/10 03:03:55;;;;;;;2.35;0.60;;;;;;;19.13;61.72;100446.34;4911028;28;101485;-79
2021/07/10 03:06:20;;;;;;;0.85;0.60;;;;;;;19.15;61.60;100447.09;4923561;28;98068;-79
2021/07/10 03:08:46;;;;;;;2.13;0.60;;;;;;;19.14;61.37;100442.75;4919535;28;97071;-79
2021/07/10 03:11:12;;;;;;;1.48;0.63;;;;;;;19.22;61.42;100447.53;4914149;28;96856;-80
2021/07/10 03:13:39;;;;;;;1.27;0.60;;;;;;;19.05;61.51;100423.88;4913343;28;101787;-79
2021/07/10 03:16:05;;;;;;;3.15;0.80;;;;;;;19.12;61.79;100439.31;4924863;28;98000;-79
2021/07/10 03:18:30;;;;;;;3.05;0.60;;;;;;;19.14;61.19;100444.53;4885345;28;96727;-79
2021/07/10 03:20:56;;;;;;;1.40;0.75;;;;;;;19.17;61.52;100442.53;4914136;28;96963;-79
2021/07/10 03:23:21;;;;;;;0.98;0.60;;;;;;;19.23;61.14;100444.78;4926744;28;97928;-79
2021/07/10 03:25:47;;;;;;;0.75;0.60;;;;;;;19.18;61.52;100441.56;4907458;28;98045;-80
2021/07/10 03:28:13;;;;;;;1.77;0.75;;;;;;;19.18;61.53;100448.69;4904325;28;97248;-79
2021/07/10 03:30:39;;;;;;;1.65;0.80;;;;;;;19.12;61.42;100435.81;4917362;28;96951;-80
2021/07/10 03:33:04;;;;;;;1.00;0.90;;;;;;;19.08;61.51;100428.97;4916199;28;101484;-79
2021/07/10 03:35:30;;;;;;;2.22;1.00;;;;;;;19.20;61.53;100439.66;4925236;28;98259;-79
2021/07/10 03:37:57;;;;;;;1.10;0.70;;;;;;;19.18;61.37;100446.88;4910992;28;96788;-79
2021/07/10 03:40:25;;;;;;;1.10;1.00;;;;;;;19.16;61.63;100443.47;4914981;28;96895;-79
2021/07/10 03:42:51;;;;;;;1.70;0.90;;;;;;;19.10;61.71;100433.25;4928173;28;98559;-79
2021/07/10 03:45:18;;;;;;;0.90;0.90;;;;;;;19.17;61.22;100439.88;4914184;28;101443;-80
2021/07/10 03:47:44;;;;;;;1.05;0.80;;;;;;;19.13;60.73;100427.72;4912534;28;96906;-79
2021/07/10 03:50:12;;;;;;;3.50;0.70;;;;;;;19.04;61.14;100438.97;4897538;28;96893;-79
2021/07/10 03:52:38;;;;;;;1.25;1.00;;;;;;;19.11;61.52;100444.72;4916293;28;98079;-79
2021/07/10 03:55:06;;;;;;;3.33;1.15;;;;;;;19.11;61.80;100455.38;4932810;28;101675;-79
2021/07/10 03:57:31;;;;;;;0.63;0.63;;;;;;;19.10;61.74;100451.88;4904269;28;96794;-79
2021/07/10 03:59:57;;;;;;;1.00;0.90;;;;;;;19.11;61.72;100447.41;4923296;28;97124;-79
2021/07/10 04:02:23;;;;;;;0.80;0.80;;;;;;;19.11;61.40;100442.06;4929354;28;98064;-78
2021/07/10 04:04:48;;;;;;;1.95;1.23;;;;;;;19.07;61.79;100445.91;4908045;28;100910;-79
2021/07/10 04:07:14;;;;;;;1.25;0.90;;;;;;;19.06;61.71;100438.91;4893977;28;96776;-79
2021/07/10 04:09:39;;;;;;;2.08;0.90;;;;;;;19.11;61.51;100450.06;4913909;28;96890;-79
2021/07/10 04:12:05;;;;;;;1.02;0.80;;;;;;;19.06;61.61;100458.38;4924305;28;101668;-79
2021/07/10 04:14:31;;;;;;;2.40;1.08;;;;;;;19.11;62.11;100447.41;4919725;28;97810;-79
2021/07/10 04:16:58;;;;;;;3.33;1.20;;;;;;;19.07;61.94;100454.75;4925735;28;97113;-79
2021/07/10 04:19:23;;;;;;;1.77;0.70;;;;;;;19.12;61.98;100454.44;4887825;28;96879;-79
2021/07/10 04:21:49;;;;;;;3.25;0.93;;;;;;;19.15;61.59;100451.56;4914977;28;101682;-80
2021/07/10 04:24:15;;;;;;;2.58;1.00;;;;;;;19.19;61.39;100453.91;4900111;28;101505;-80
2021/07/10 04:26:41;;;;;;;2.08;1.30;;;;;;;19.23;61.04;100460.75;4917038;28;96728;-79
2021/07/10 04:29:06;;;;;;;2.92;1.25;;;;;;;19.19;61.10;100461.03;4907691;28;96887;-79
2021/07/10 04:31:32;;;;;;;1.30;1.00;;;;;;;19.20;61.35;100460.09;4925785;28;101192;-79
2021/07/10 04:33:57;;;;;;;2.88;1.00;;;;;;;19.14;61.18;100449.84;4902275;28;98474;-79
2021/07/10 04:36:23;;;;;;;3.95;1.33;;;;;;;19.16;60.83;100458.59;4928446;28;98330;-79
2021/07/10 04:38:48;;;;;;;2.78;1.17;;;;;;;19.13;60.96;100474.75;4933013;28;98275;-80
2021/07/10 04:41:15;;;;;;;1.05;1.00;;;;;;;19.27;60.87;100482.66;4903234;28;101279;-80
2021/07/10 04:43:40;;;;;;;1.58;1.10;;;;;;;19.19;61.26;100477.84;4923530;28;98352;-79
2021/07/10 04:46:06;;;;;;;1.45;1.00;;;;;;;19.10;61.50;100467.84;4909303;28;96884;-79
2021/07/10 04:48:31;;;;;;;1.50;1.10;;;;;;;19.05;61.35;100443.34;4903205;28;96865;-80
2021/07/10 04:50:57;;;;;;;1.83;1.13;;;;;;;19.30;61.03;100478.94;4915449;28;98112;-80
2021/07/10 04:53:22;;;;;;;1.20;1.10;;;;;;;19.28;60.71;100455.09;4907499;28;101344;-79
2021/07/10 04:55:48;;;;;;;1.77;1.20;;;;;;;19.29;60.82;100450.63;4913572;28;96769;-80
2021/07/10 04:58:14;;;;;;;2.20;1.23;;;;;;;19.41;60.29;100455.97;4897263;28;98364;-80
2021/07/10 05:00:39;;;;;;;2.78;1.20;;;;;;;19.36;60.64;100458.06;4912803;28;98034;-79
2021/07/10 05:03:05;;;;;;;2.83;1.40;;;;;;;19.37;60.59;100459.81;4901836;28;98642;-79
2021/07/10 05:05:31;;;;;;;3.22;1.40;;;;;;;19.36;60.79;100454.56;4908968;28;97283;-80
2021/07/10 05:07:56;;;;;;;3.25;1.20;;;;;;;19.50;60.55;100467.78;4912739;28;96875;-80
2021/07/10 05:10:22;;;;;;;2.85;1.33;;;;;;;19.58;60.25;100469.94;4928441;28;101523;-80
2021/07/10 05:12:47;;;;;;;2.38;1.25;;;;;;;19.53;60.19;100454.25;4920460;28;101405;-81
2021/07/10 05:15:14;;;;;;;2.60;1.17;;;;;;;19.58;60.45;100470.78;4902967;28;96675;-79
2021/07/10 05:17:40;;;;;;;1.23;1.13;;;;;;;19.38;60.26;100431.38;4924439;28;96970;-79
2021/07/10 05:20:07;;;;;;;2.38;1.50;;;;;;;19.55;59.91;100444.38;4926905;28;101171;-79
2021/07/10 05:22:33;;;;;;;4.35;1.33;;;;;;;19.60;60.16;100463.50;4907297;28;100846;-80
2021/07/10 05:24:58;;;;;;;2.00;1.30;;;;;;;19.62;59.82;100456.28;4891324;28;96751;-81
2021/07/10 05:27:24;;;;;;;1.63;1.10;;;;;;;19.78;60.09;100469.44;4912847;28;96944;-80
2021/07/10 05:29:49;;;;;;;3.92;1.50;;;;;;;19.88;58.84;100469.63;4907944;28;97688;-80
2021/07/10 05:32:15;;;;;;;1.02;0.80;;;;;;;19.89;59.02;100463.31;4900446;28;101659;-79
2021/07/10 05:34:42;;;;;;;1.38;1.00;;;;;;;19.89;58.73;100468.66;4927135;28;98109;-79
2021/07/10 05:37:07;;;;;;;3.33;0.95;;;;;;;19.89;58.99;100473.97;4907748;28;97451;-78
2021/07/10 05:39:33;;;;;;;4.10;1.45;;;;;;;19.96;58.62;100479.75;4908908;28;101239;-79
2021/07/10 05:41:59;;;;;;;3.25;1.20;;;;;;;19.93;59.09;100475.47;4915142;28;101272;-80
2021/07/10 05:44:25;;;;;;;1.17;0.90;;;;;;;20.01;58.98;100467.81;4915778;28;96843;-79
2021/07/10 05:46:51;;;;;;;3.15;1.23;;;;;;;20.08;58.77;100486.88;4923229;28;98858;-80
2021/07/10 05:49:16;;;;;;;3.10;1.55;;;;;;;20.11;58.56;100489.31;4881491;28;101442;-80
2021/07/10 05:51:42;;;;;;;5.63;1.33;;;;;;;20.18;58.58;100489.72;4931275;28;100015;-80
2021/07/10 05:54:08;;;;;;;1.98;1.50;;;;;;;20.33;58.46;100499.25;4929970;28;97237;-80
2021/07/10 05:56:34;;;;;;;3.42;1.08;;;;;;;20.40;57.99;100499.69;4904860;28;96881;-80
2021/07/10 05:58:59;;;;;;;3.83;1.08;;;;;;;20.46;58.06;100501.91;4915949;28;101511;-79
2021/07/10 06:01:25;;;;;;;4.40;1.30;;;;;;;20.51;58.12;100511.28;4903528;28;101242;-80
2021/07/10 06:03:50;;;;;;;2.33;1.33;;;;;;;20.57;57.53;100510.03;4914868;28;97263;-80
2021/07/10 06:06:16;;;;;;;1.17;1.05;;;;;;;20.46;57.76;100499.25;4932075;28;98234;-80
2021/07/10 06:08:42;;;;;;;3.45;1.10;;;;;;;20.41;57.45;100507.56;4902276;28;101459;-80
2021/07/10 06:11:08;;;;;;;4.10;1.30;;;;;;;20.69;56.91;100497.59;4914124;28;101623;-78
2021/07/10 06:13:34;;;;;;;1.60;1.10;;;;;;;21.27;55.68;100514.59;4915377;28;96714;-80
2021/07/10 06:15:59;;;;;;;2.55;1.00;;;;;;;23.91;50.35;100517.34;4911718;28;98761;-80
2021/07/10 06:18:25;;;;;;;1.67;1.20;;;;;;;23.99;49.48;100504.13;4922879;28;101666;-80
2021/07/10 06:20:51;;;;;;;1.33;0.90;;;;;;;25.97;46.17;100504.88;4911420;28;101815;-81
2021/07/10 06:23:18;;;;;;;2.55;1.23;;;;;;;28.20;42.23;100484.19;4914817;28;96758;-80
2021/07/10 06:25:44;;;;;;;1.08;0.98;;;;;;;29.37;39.08;100482.41;4915559;28;97350;-79
2021/07/10 06:28:09;;;;;;;1.13;0.90;;;;;;;30.31;37.72;100491.69;4926242;28;98421;-80
2021/07/10 06:30:36;;;;;;;2.92;1.20;;;;;;;31.19;36.46;100493.16;4915520;28;98450;-80
2021/07/10 06:33:01;;;;;;;2.47;1.20;;;;;;;31.85;35.40;100490.66;4909625;28;96805;-81
2021/07/10 06:35:27;;;;;;;4.00;1.10;;;;;;;31.47;36.05;100490.72;4923803;28;97231;-80
2021/07/10 06:37:53;;;;;;;1.02;0.95;;;;;;;31.17;35.40;100489.78;4901703;28;101740;-81
2021/07/10 06:40:18;;;;;;;1.95;1.00;;;;;;;29.19;38.78;100496.09;4934013;28;98610;-81
2021/07/10 06:42:45;;;;;;;3.65;0.90;;;;;;;29.36;38.69;100488.00;4902022;28;97224;-80
2021/07/10 06:45:13;;;;;;;4.63;0.80;;;;;;;28.18;40.37;100488.91;4910001;28;96807;-80
2021/07/10 06:47:39;;;;;;;4.88;1.10;;;;;;;27.49;40.55;100497.94;4912943;28;98336;-80
2021/07/10 06:50:07;;;;;;;1.58;1.05;;;;;;;27.43;41.39;100493.16;4909239;28;99786;-80
2021/07/10 06:52:33;;;;;;;1.50;0.73;;;;;;;29.75;37.21;100470.03;4893604;28;96817;-80
2021/07/10 06:54:59;;;;;;;0.70;0.70;;;;;;;30.76;36.12;100481.94;4915020;28;96820;-80
2021/07/10 06:57:24;;;;;;;1.52;0.85;;;;;;;31.91;34.43;100486.41;4914665;28;98081;-80
2021/07/10 06:59:50;;;;;;;2.03;1.10;;;;;;;32.20;33.78;100470.09;4923383;28;98066;-81
2021/07/10 07:02:16;;;;;;;2.10;1.08;;;;;;;33.98;32.15;100466.50;4919799;28;97176;-80
2021/07/10 07:04:41;;;;;;;1.92;1.00;;;;;;;35.09;31.42;100470.88;4910093;28;96945;-80
2021/07/10 07:07:07;;;;;;;1.95;0.95;;;;;;;33.22;33.11;100482.72;4909137;28;101705;-81
2021/07/10 07:09:33;;;;;;;2.67;0.85;;;;;;;30.42;36.54;100476.88;4903681;28;97542;-79
2021/07/10 07:11:59;;;;;;;2.08;0.98;;;;;;;29.52;37.29;100479.84;4910886;28;97333;-83
2021/07/10 07:14:25;;;;;;;2.25;0.88;;;;;;;28.42;39.61;100488.19;4903861;28;97000;-80
2021/07/10 07:16:50;;;;;;;2.42;1.10;;;;;;;31.41;35.22;100477.91;4914415;28;98094;-80
2021/07/10 07:19:16;;;;;;;2.17;0.90;;;;;;;30.40;36.25;100471.66;4914535;28;97954;-80
2021/07/10 07:21:41;;;;;;;1.02;0.75;;;;;;;29.16;37.81;100496.44;4910550;28;96609;-80
2021/07/10 07:24:07;;;;;;;5.20;1.23;;;;;;;29.56;37.08;100486.63;4909764;28;97203;-80
2021/07/10 07:26:33;;;;;;;1.70;0.90;;;;;;;29.16;38.08;100479.38;4929178;28;98083;-80
2021/07/10 07:28:59;;;;;;;1.52;0.90;;;;;;;28.81;38.92;100492.16;4925753;28;101890;-81
2021/07/10 07:31:25;;;;;;;1.42;0.90;;;;;;;28.21;40.12;100487.72;4913598;28;96728;-80
2021/07/10 07:33:50;;;;;;;2.17;1.30;;;;;;;27.54;40.70;100482.13;4917657;28;96914;-80
2021/07/10 07:36:16;;;;;;;2.85;0.80;;;;;;;27.04;41.52;100488.09;4919318;28;98497;-80
2021/07/10 07:38:41;;;;;;;2.78;1.25;;;;;;;26.76;42.18;100496.28;4908685;28;101809;-80
2021/07/10 07:41:07;;;;;;;2.03;1.00;;;;;;;26.31;42.50;100497.06;4905727;28;96803;-80
2021/07/10 07:43:33;;;;;;;1.75;1.20;;;;;;;25.95;43.27;100498.81;4904206;28;97235;-80
2021/07/10 07:45:58;;;;;;;3.28;1.27;;;;;;;25.82;43.90;100492.88;4930939;28;98513;-81
2021/07/10 07:48:24;;;;;;;2.30;0.98;;;;;;;26.02;43.86;100485.59;4907821;28;101465;-81
2021/07/10 07:50:50;;;;;;;2.15;1.08;;;;;;;26.55;43.10;100501.06;4890442;28;98557;-80
2021/07/10 07:53:16;;;;;;;4.85;1.13;;;;;;;26.31;43.63;100470.16;4906635;28;98765;-81
2021/07/10 07:55:46;;;;;;;1.70;0.98;;;;;;;27.13;40.62;100487.16;4892027;28;102033;-80
2021/07/10 07:58:12;;;;;;;1.42;0.80;;;;;;;28.07;38.63;100488.34;4878444;28;101458;-80
2021/07/10 08:00:38;;;;;;;2.38;1.05;;;;;;;29.72;36.92;100497.41;4907999;28;97445;-81
2021/07/10 08:03:03;;;;;;;3.15;0.98;;;;;;;30.73;35.21;100495.00;4897333;28;97091;-81
2021/07/10 08:05:29;;;;;;;2.42;1.00;;;;;;;31.73;33.87;100498.44;4899678;28;97513;-81
2021/07/10 08:07:55;;;;;;;1.73;0.88;;;;;;;32.70;32.52;100489.31;4903068;28;101394;-80
2021/07/10 08:10:21;;;;;;;1.52;1.20;;;;;;;33.70;30.89;100487.50;4896504;28;96827;-81
2021/07/10 08:12:49;;;;;;;2.28;1.02;;;;;;;34.29;31.11;100483.44;4894886;28;96913;-81
2021/07/10 08:15:19;;;;;;;1.77;1.05;;;;;;;34.52;29.87;100470.31;4895566;28;101453;-80
2021/07/10 08:17:46;;;;;;;1.63;1.05;;;;;;;35.15;29.62;100481.78;4898395;28;101513;-81
2021/07/10 08:20:13;;;;;;;2.28;0.90;;;;;;;35.55;29.16;100470.88;4900511;28;97385;-81
2021/07/10 08:22:39;;;;;;;0.80;0.70;;;;;;;35.74;28.90;100480.06;4887076;28;97422;-81
2021/07/10 08:25:06;;;;;;;1.13;0.90;;;;;;;36.18;28.28;100478.47;4894400;28;98296;-81
2021/07/10 08:27:32;;;;;;;2.47;1.27;;;;;;;36.64;27.86;100482.91;4902013;28;101478;-83
2021/07/10 08:29:57;;;;;;;3.15;1.10;;;;;;;36.75;27.36;100464.16;4910426;28;97420;-81
2021/07/10 08:32:23;;;;;;;1.95;1.33;;;;;;;36.40;27.75;100470.81;4917572;28;97244;-81
2021/07/10 08:34:49;;;;;;;2.60;0.90;;;;;;;36.69;26.88;100474.06;4917550;28;98654;-81
2021/07/10 08:37:16;;;;;;;2.65;1.33;;;;;;;36.36;27.06;100482.41;4913754;28;101686;-82
2021/07/10 08:39:42;;;;;;;3.08;1.10;;;;;;;36.43;27.61;100467.66;4944619;28;96893;-81
2021/07/10 08:42:08;;;;;;;1.02;0.77;;;;;;;34.38;29.29;100488.47;4893356;28;96908;-81
2021/07/10 08:44:34;;;;;;;0.80;0.80;;;;;;;34.89;29.00;100487.19;4910575;28;98392;-82
2021/07/10 08:47:00;;;;;;;0.80;0.80;;;;;;;33.62;29.98;100495.81;4891457;28;101146;-81
2021/07/10 08:49:26;;;;;;;1.02;0.90;;;;;;;35.07;27.95;100492.91;4907238;28;97174;-81
2021/07/10 08:51:52;;;;;;;1.08;0.90;;;;;;;35.47;28.28;100484.72;4913146;28;96941;-81
2021/07/10 08:54:18;;;;;;;1.00;0.80;;;;;;;35.42;28.38;100473.59;4894227;28;101445;-84
2021/07/10 08:56:45;;;;;;;2.40;0.70;;;;;;;34.10;28.90;100485.03;4896528;28;101301;-81
2021/07/10 08:59:12;;;;;;;1.15;0.80;;;;;;;32.98;31.07;100483.91;4911188;28;96850;-82
2021/07/10 09:01:38;;;;;;;2.75;0.90;;;;;;;31.82;32.14;100485.59;4903505;28;97491;-81
2021/07/10 09:04:05;;;;;;;0.80;0.70;;;;;;;31.39;33.13;100484.53;4896548;28;102134;-81
2021/07/10 09:06:32;;;;;;;1.50;0.77;;;;;;;30.44;34.20;100483.81;4881497;28;101753;-81
2021/07/10 09:08:57;;;;;;;4.25;0.93;;;;;;;30.11;34.38;100487.69;4908220;28;97265;-81
2021/07/10 09:11:24;;;;;;;1.52;1.15;;;;;;;29.65;35.31;100487.47;4903897;28;97374;-81
2021/07/10 09:13:52;;;;;;;1.17;0.93;;;;;;;29.66;36.06;100486.47;4930925;28;98577;-80
2021/07/10 09:16:30;;;;;;;0.95;0.80;;;;;;;29.87;35.36;100469.66;4929522;28;101856;-82
2021/07/10 09:19:07;;;;;;;1.52;0.90;;;;;;;29.82;35.21;100472.03;4914248;28;97000;-81
2021/07/10 09:21:35;;;;;;;3.50;0.82;;;;;;;29.84;36.20;100470.00;4913262;28;97279;-80
2021/07/10 09:24:02;;;;;;;2.75;1.05;;;;;;;29.20;36.41;100481.56;4913352;28;101166;-81
2021/07/10 09:26:28;;;;;;;1.38;0.90;;;;;;;28.98;36.85;100461.44;4922334;28;98130;-81
2021/07/10 09:29:02;;;;;;;2.45;0.93;;;;;;;28.64;36.72;100465.13;4900643;28;97178;-81
2021/07/10 09:31:30;;;;;;;0.82;0.80;;;;;;;28.81;36.89;100465.16;4916278;28;97452;-81
2021/07/10 09:34:08;;;;;;;1.00;0.88;;;;;;;29.05;37.18;100462.47;4921964;28;97740;-82
2021/07/10 09:36:35;;;;;;;1.33;1.00;;;;;;;29.03;37.70;100472.63;4893153;28;101395;-82
2021/07/10 09:39:01;;;;;;;4.47;1.27;;;;;;;28.59;38.02;100459.38;4931480;28;96786;-81
2021/07/10 09:41:30;;;;;;;1.13;0.85;;;;;;;28.85;37.37;100453.81;4902250;28;96926;-82
2021/07/10 09:44:12;;;;;;;1.85;0.80;;;;;;;28.82;36.54;100469.53;4940151;28;98658;-81
2021/07/10 09:46:39;;;;;;;4.18;1.50;;;;;;;28.63;37.26;100463.44;4947765;28;98498;-81
2021/07/10 09:49:18;;;;;;;1.60;0.95;;;;;;;28.34;38.31;100473.78;4931649;28;96805;-79
2021/07/10 09:51:46;;;;;;;5.30;1.00;;;;;;;28.18;38.25;100461.06;4904464;28;97131;-76
2021/07/10 09:54:12;;;;;;;1.88;1.10;;;;;;;28.62;38.13;100474.38;4944966;28;97540;-77
2021/07/10 09:56:57;;;;;;;3.65;1.50;;;;;;;28.35;39.46;100472.78;4884325;28;101034;-76
2021/07/10 09:59:24;;;;;;;3.08;1.00;;;;;;;28.31;38.19;100461.47;4894909;28;96967;-76
2021/07/10 10:01:50;;;;;;;0.80;0.80;;;;;;;28.14;38.40;100481.31;4926275;28;98147;-77
2021/07/10 10:04:22;;;;;;;2.25;0.93;;;;;;;28.34;38.05;100473.78;4898678;28;101233;-77
2021/07/10 10:06:47;;;;;;;1.10;1.00;;;;;;;28.23;38.10;100463.31;4929367;28;97866;-78
2021/07/10 10:09:27;;;;;;;1.50;1.05;;;;;;;28.48;37.69;100475.91;4934582;28;96747;-78
2021/07/10 10:11:52;;;;;;;2.50;0.88;;;;;;;28.77;37.03;100472.75;4917350;28;96822;-78
2021/07/10 10:14:18;;;;;;;1.95;0.85;;;;;;;28.60;37.44;100457.53;4934503;28;101261;-79
2021/07/10 10:16:47;;;;;;;4.65;0.90;;;;;;;28.41;37.69;100473.00;4911670;28;99679;-79
2021/07/10 10:19:14;;;;;;;1.75;0.98;;;;;;;28.06;38.20;100465.09;4909215;28;96878;-80
2021/07/10 10:21:41;;;;;;;4.30;1.10;;;;;;;28.31;38.02;100461.47;4904797;28;98686;-80
2021/07/10 10:24:07;;;;;;;3.88;1.20;;;;;;;28.51;37.87;100474.69;4900602;28;98083;-78
2021/07/10 10:26:34;;;;;;;2.83;1.00;;;;;;;28.48;37.88;100470.50;4900638;28;101889;-80
2021/07/10 10:28:59;;;;;;;3.90;1.20;;;;;;;28.52;38.09;100473.72;4931572;28;96949;-79
2021/07/10 10:31:25;;;;;;;3.13;0.90;;;;;;;28.24;39.08;100467.69;4906806;28;97681;-79
2021/07/10 10:33:51;;;;;;;3.58;0.82;;;;;;;28.12;38.95;100448.25;4896282;28;101530;-79
2021/07/10 10:36:22;;;;;;;3.95;1.42;;;;;;;28.06;39.23;100452.44;4920160;28;97879;-79
2021/07/10 10:38:50;;;;;;;1.13;0.77;;;;;;;28.23;39.21;100472.22;4909948;28;96796;-79
2021/07/10 10:41:17;;;;;;;2.15;0.80;;;;;;;28.27;38.73;100468.19;4916131;28;96972;-80
2021/07/10 10:43:43;;;;;;;3.35;1.40;;;;;;;28.20;38.92;100459.06;4895905;28;98585;-79
2021/07/10 10:46:19;;;;;;;1.73;0.98;;;;;;;28.17;38.93;100475.59;4922865;28;101558;-79
2021/07/10 10:48:45;;;;;;;1.17;0.70;;;;;;;28.17;38.59;100459.41;4908282;28;97542;-79
2021/07/10 10:51:29;;;;;;;1.45;0.88;;;;;;;28.30;38.12;100462.47;4897636;28;97057;-79
2021/07/10 10:54:16;;;;;;;1.42;0.80;;;;;;;28.14;37.92;100470.50;4925182;28;101375;-80
2021/07/10 10:56:43;;;;;;;1.65;0.90;;;;;;;28.16;38.43;100460.41;4924075;28;101251;-79
2021/07/10 10:59:27;;;;;;;3.47;1.30;;;;;;;28.24;39.10;100467.69;4908612;28;97414;-80
2021/07/10 11:01:54;;;;;;;1.90;0.95;;;;;;;28.20;38.62;100462.59;4918810;28;96796;-79
2021/07/10 11:04:45;;;;;;;1.23;0.90;;;;;;;28.04;38.66;100467.94;4923244;28;97985;-80
2021/07/10 11:07:26;;;;;;;;;;;;;;;27.76;38.87;100462.72;4914121;28;98401;-80
2021/07/10 11:10:11;;;;;;;1.58;0.90;;;;;;;27.59;40.38;100460.09;4893223;28;97528;-79
2021/07/10 11:12:45;;;;;;;1.83;0.90;;;;;;;27.59;39.89;100476.25;4924712;28;98112;-80
2021/07/10 11:15:32;;;;;;;4.07;0.90;;;;;;;27.72;39.35;100466.75;4925645;28;99745;-80
2021/07/10 11:17:59;;;;;;;2.83;1.08;;;;;;;27.76;39.73;100456.47;4919597;28;100980;-79
2021/07/10 11:20:54;;;;;;;1.25;0.90;;;;;;;27.81;40.53;100462.28;4925264;28;96953;-80
2021/07/10 11:23:30;;;;;;;2.65;1.20;;;;;;;28.09;40.37;100452.09;4915710;28;96914;-77